sensor_id;sensor_type;location;lat;lon;timestamp;pressure;altitude;pressure_sealevel;temperature;humidity
7662;BME280;30314;48.184;11.510;2023-04-24T00:02:05;95042.16;;;9.90;100.00
7662;BME280;30314;48.184;11.510;2023-04-24T00:04:33;95042.47;;;9.89;100.00
7662;BME280;30314;48.184;11.510;2023-04-24T00:07:00;95033.78;;;9.88;100.00
7662;BME280;30314;48.184;11.510;2023-04-24T00:09:26;95035.66;;;9.88;100.00
7662;BME280;30314;48.184;11.510;2023-04-24T00:11:53;95029.88;;;9.85;100.00
7662;BME280;30314;48.184;11.510;2023-04-24T00:14:20;95022.63;;;9.91;100.00
7662;BME280;30314;48.184;11.510;2023-04-24T00:16:46;95024.00;;;9.89;100.00
7662;BME280;30314;48.184;11.510;2023-04-24T00:19:13;95027.00;;;9.96;100.00
7662;BME280;30314;48.184;11.510;2023-04-24T00:21:40;95031.97;;;9.97;100.00
7662;BME280;30314;48.184;11.510;2023-04-24T00:24:08;95035.13;;;9.85;100.00
7662;BME280;30314;48.184;11.510;2023-04-24T00:26:37;95022.50;;;9.73;100.00
7662;BME280;30314;48.184;11.510;2023-04-24T00:29:04;95031.88;;;9.80;100.00
7662;BME280;30314;48.184;11.510;2023-04-24T00:31:30;95034.00;;;9.78;100.00
7662;BME280;30314;48.184;11.510;2023-04-24T00:33:57;95027.03;;;9.73;100.00
7662;BME280;30314;48.184;11.510;2023-04-24T00:36:24;95032.72;;;9.66;100.00
7662;BME280;30314;48.184;11.510;2023-04-24T00:38:51;95033.06;;;9.73;100.00
7662;BME280;30314;48.184;11.510;2023-04-24T00:41:17;95029.75;;;9.68;100.00
7662;BME280;30314;48.184;11.510;2023-04-24T00:43:44;95036.59;;;9.69;100.00
7662;BME280;30314;48.184;11.510;2023-04-24T00:46:11;95028.16;;;9.58;100.00
7662;BME280;30314;48.184;11.510;2023-04-24T00:48:39;95027.28;;;9.49;100.00
7662;BME280;30314;48.184;11.510;2023-04-24T00:51:06;95034.97;;;9.59;100.00
7662;BME280;30314;48.184;11.510;2023-04-24T00:53:33;95029.16;;;9.71;100.00
7662;BME280;30314;48.184;11.510;2023-04-24T00:56:00;95029.34;;;9.75;100.00
7662;BME280;30314;48.184;11.510;2023-04-24T00:58:27;95031.53;;;9.58;100.00
7662;BME280;30314;48.184;11.510;2023-04-24T01:00:54;95019.44;;;9.57;100.00
7662;BME280;30314;48.184;11.510;2023-04-24T01:03:22;95021.00;;;9.58;100.00
7662;BME280;30314;48.184;11.510;2023-04-24T01:05:51;95023.78;;;9.53;100.00
7662;BME280;30314;48.184;11.510;2023-04-24T01:08:19;95027.69;;;9.56;100.00
7662;BME280;30314;48.184;11.510;2023-04-24T01:10:47;95027.34;;;9.57;100.00
7662;BME280;30314;48.184;11.510;2023-04-24T01:13:14;95024.84;;;9.52;100.00
7662;BME280;30314;48.184;11.510;2023-04-24T01:15:43;95021.06;;;9.44;100.00
7662;BME280;30314;48.184;11.510;2023-04-24T01:18:10;95022.22;;;9.52;100.00
7662;BME280;30314;48.184;11.510;2023-04-24T01:20:39;95020.47;;;9.48;100.00
7662;BME280;30314;48.184;11.510;2023-04-24T01:23:07;95015.72;;;9.58;100.00
7662;BME280;30314;48.184;11.510;2023-04-24T01:25:34;95011.19;;;9.50;100.00
7662;BME280;30314;48.184;11.510;2023-04-24T01:28:01;95010.94;;;9.38;100.00
7662;BME280;30314;48.184;11.510;2023-04-24T01:30:29;95010.34;;;9.41;100.00
7662;BME280;30314;48.184;11.510;2023-04-24T01:32:58;95006.19;;;9.26;100.00
7662;BME280;30314;48.184;11.510;2023-04-24T01:35:25;95004.53;;;9.16;100.00
7662;BME280;30314;48.184;11.510;2023-04-24T01:37:52;94999.44;;;9.20;100.00
7662;BME280;30314;48.184;11.510;2023-04-24T01:40:19;95001.41;;;9.14;100.00
7662;BME280;30314;48.184;11.510;2023-04-24T01:42:45;95007.88;;;9.08;100.00
7662;BME280;30314;48.184;11.510;2023-04-24T01:45:13;94999.84;;;9.13;100.00
7662;BME280;30314;48.184;11.510;2023-04-24T01:47:40;95004.34;;;9.12;100.00
7662;BME280;30314;48.184;11.510;2023-04-24T01:50:08;95010.97;;;9.24;100.00
7662;BME280;30314;48.184;11.510;2023-04-24T01:52:35;95008.47;;;9.05;100.00
7662;BME280;30314;48.184;11.510;2023-04-24T01:55:03;95005.25;;;9.08;100.00
7662;BME280;30314;48.184;11.510;2023-04-24T01:57:31;95013.16;;;9.08;100.00
7662;BME280;30314;48.184;11.510;2023-04-24T01:59:57;95005.13;;;9.13;100.00
7662;BME280;30314;48.184;11.510;2023-04-24T02:02:24;94986.97;;;9.11;100.00
7662;BME280;30314;48.184;11.510;2023-04-24T02:04:56;94999.84;;;9.13;100.00
7662;BME280;30314;48.184;11.510;2023-04-24T02:07:23;94998.44;;;9.07;100.00
7662;BME280;30314;48.184;11.510;2023-04-24T02:09:49;95013.91;;;9.08;100.00
7662;BME280;30314;48.184;11.510;2023-04-24T02:12:16;95008.84;;;9.12;100.00
7662;BME280;30314;48.184;11.510;2023-04-24T02:14:44;95013.31;;;9.11;100.00
7662;BME280;30314;48.184;11.510;2023-04-24T02:17:10;95008.72;;;9.17;100.00
7662;BME280;30314;48.184;11.510;2023-04-24T02:19:38;95008.84;;;9.12;100.00
7662;BME280;30314;48.184;11.510;2023-04-24T02:22:05;95014.59;;;9.14;100.00
7662;BME280;30314;48.184;11.510;2023-04-24T02:24:33;95005.34;;;9.02;100.00
7662;BME280;30314;48.184;11.510;2023-04-24T02:26:59;95002.41;;;9.04;100.00
7662;BME280;30314;48.184;11.510;2023-04-24T02:29:26;95001.94;;;9.02;100.00
7662;BME280;30314;48.184;11.510;2023-04-24T02:31:53;95003.03;;;9.01;100.00
7662;BME280;30314;48.184;11.510;2023-04-24T02:34:19;95005.16;;;8.99;100.00
7662;BME280;30314;48.184;11.510;2023-04-24T02:36:46;95005.94;;;8.99;100.00
7662;BME280;30314;48.184;11.510;2023-04-24T02:39:14;95000.78;;;8.94;100.00
7662;BME280;30314;48.184;11.510;2023-04-24T02:41:43;95004.38;;;8.98;100.00
7662;BME280;30314;48.184;11.510;2023-04-24T02:44:09;95003.03;;;9.01;100.00
7662;BME280;30314;48.184;11.510;2023-04-24T02:46:36;95006.22;;;8.98;100.00
7662;BME280;30314;48.184;11.510;2023-04-24T02:49:03;95003.78;;;9.01;100.00
7662;BME280;30314;48.184;11.510;2023-04-24T02:51:30;95008.38;;;8.96;100.00
7662;BME280;30314;48.184;11.510;2023-04-24T02:53:57;95006.22;;;8.98;100.00
7662;BME280;30314;48.184;11.510;2023-04-24T02:56:24;95003.44;;;8.94;100.00
7662;BME280;30314;48.184;11.510;2023-04-24T02:58:51;95008.09;;;8.97;100.00
7662;BME280;30314;48.184;11.510;2023-04-24T03:01:17;95007.22;;;8.88;100.00
7662;BME280;30314;48.184;11.510;2023-04-24T03:03:44;95003.31;;;8.85;100.00
7662;BME280;30314;48.184;11.510;2023-04-24T03:06:11;95002.94;;;8.78;100.00
7662;BME280;30314;48.184;11.510;2023-04-24T03:08:37;95005.00;;;8.81;100.00
7662;BME280;30314;48.184;11.510;2023-04-24T03:11:04;94998.97;;;8.81;100.00
7662;BME280;30314;48.184;11.510;2023-04-24T03:13:30;95002.44;;;8.90;100.00
7662;BME280;30314;48.184;11.510;2023-04-24T03:15:57;94997.38;;;8.94;100.00
7662;BME280;30314;48.184;11.510;2023-04-24T03:18:24;94998.56;;;8.87;100.00
7662;BME280;30314;48.184;11.510;2023-04-24T03:20:51;95002.56;;;8.85;100.00
7662;BME280;30314;48.184;11.510;2023-04-24T03:23:18;95008.31;;;8.87;100.00
7662;BME280;30314;48.184;11.510;2023-04-24T03:25:45;95011.41;;;8.89;100.00
7662;BME280;30314;48.184;11.510;2023-04-24T03:28:12;95012.09;;;8.95;100.00
7662;BME280;30314;48.184;11.510;2023-04-24T03:30:42;95006.06;;;8.94;100.00
7662;BME280;30314;48.184;11.510;2023-04-24T03:33:10;95005.00;;;8.81;100.00
7662;BME280;30314;48.184;11.510;2023-04-24T03:35:54;95001.97;;;8.88;100.00
7662;BME280;30314;48.184;11.510;2023-04-24T03:38:21;95005.88;;;8.91;100.00
7662;BME280;30314;48.184;11.510;2023-04-24T03:40:55;95008.00;;;8.88;100.00
7662;BME280;30314;48.184;11.510;2023-04-24T03:43:41;95002.28;;;8.72;100.00
7662;BME280;30314;48.184;11.510;2023-04-24T03:46:09;95007.75;;;8.76;100.00
7662;BME280;30314;48.184;11.510;2023-04-24T03:48:40;95007.03;;;8.84;100.00
7662;BME280;30314;48.184;11.510;2023-04-24T03:51:08;95006.94;;;8.76;100.00
7662;BME280;30314;48.184;11.510;2023-04-24T03:53:37;94994.84;;;8.74;100.00
7662;BME280;30314;48.184;11.510;2023-04-24T03:56:04;94991.34;;;8.79;100.00
7662;BME280;30314;48.184;11.510;2023-04-24T03:58:32;94989.00;;;8.78;100.00
7662;BME280;30314;48.184;11.510;2023-04-24T04:00:59;94989.13;;;8.72;100.00
7662;BME280;30314;48.184;11.510;2023-04-24T04:03:46;94989.13;;;8.72;100.00
7662;BME280;30314;48.184;11.510;2023-04-24T04:06:16;94993.78;;;8.76;100.00
7662;BME280;30314;48.184;11.510;2023-04-24T04:08:44;94986.38;;;8.78;100.00
7662;BME280;30314;48.184;11.510;2023-04-24T04:11:12;94980.63;;;8.76;100.00
7662;BME280;30314;48.184;11.510;2023-04-24T04:13:38;94979.94;;;8.70;100.00
7662;BME280;30314;48.184;11.510;2023-04-24T04:16:05;94989.97;;;8.82;100.00
7662;BME280;30314;48.184;11.510;2023-04-24T04:18:32;94994.19;;;8.83;100.00
7662;BME280;30314;48.184;11.510;2023-04-24T04:20:59;94991.44;;;8.88;100.00
7662;BME280;30314;48.184;11.510;2023-04-24T04:23:27;94987.63;;;8.80;100.00
7662;BME280;30314;48.184;11.510;2023-04-24T04:26:05;94989.78;;;8.78;100.00
7662;BME280;30314;48.184;11.510;2023-04-24T04:28:47;94987.28;;;8.73;100.00
7662;BME280;30314;48.184;11.510;2023-04-24T04:31:15;94992.34;;;8.69;100.00
7662;BME280;30314;48.184;11.510;2023-04-24T04:33:42;94990.06;;;8.77;100.00
7662;BME280;30314;48.184;11.510;2023-04-24T04:36:09;94992.03;;;8.71;100.00
7662;BME280;30314;48.184;11.510;2023-04-24T04:38:41;94999.84;;;8.76;100.00
7662;BME280;30314;48.184;11.510;2023-04-24T04:41:21;95005.97;;;8.71;100.00
7662;BME280;30314;48.184;11.510;2023-04-24T04:43:47;95007.13;;;8.79;100.00
7662;BME280;30314;48.184;11.510;2023-04-24T04:46:15;95010.16;;;8.72;100.00
7662;BME280;30314;48.184;11.510;2023-04-24T04:49:04;95009.09;;;8.73;100.00
7662;BME280;30314;48.184;11.510;2023-04-24T04:51:30;95016.50;;;8.71;100.00
7662;BME280;30314;48.184;11.510;2023-04-24T04:53:58;95007.03;;;8.84;100.00
7662;BME280;30314;48.184;11.510;2023-04-24T04:56:25;95015.53;;;8.81;100.00
7662;BME280;30314;48.184;11.510;2023-04-24T04:58:51;95019.44;;;8.84;100.00
7662;BME280;30314;48.184;11.510;2023-04-24T05:01:18;95016.31;;;8.68;100.00
7662;BME280;30314;48.184;11.510;2023-04-24T05:03:48;95024.00;;;8.78;100.00
7662;BME280;30314;48.184;11.510;2023-04-24T05:06:17;95022.53;;;8.72;100.00
7662;BME280;30314;48.184;11.510;2023-04-24T05:08:44;95029.00;;;8.80;100.00
7662;BME280;30314;48.184;11.510;2023-04-24T05:11:22;95030.34;;;8.77;100.00
7662;BME280;30314;48.184;11.510;2023-04-24T05:13:50;95040.50;;;8.84;100.00
7662;BME280;30314;48.184;11.510;2023-04-24T05:16:22;95041.84;;;8.81;100.00
7662;BME280;30314;48.184;11.510;2023-04-24T05:18:51;95037.84;;;8.84;100.00
7662;BME280;30314;48.184;11.510;2023-04-24T05:21:22;95040.00;;;8.82;100.00
7662;BME280;30314;48.184;11.510;2023-04-24T05:23:51;95036.00;;;8.84;100.00
7662;BME280;30314;48.184;11.510;2023-04-24T05:26:29;95047.13;;;8.81;100.00
7662;BME280;30314;48.184;11.510;2023-04-24T05:28:57;95044.41;;;8.86;100.00
7662;BME280;30314;48.184;11.510;2023-04-24T05:31:24;95046.63;;;8.93;100.00
7662;BME280;30314;48.184;11.510;2023-04-24T05:33:51;95044.56;;;8.90;100.00
7662;BME280;30314;48.184;11.510;2023-04-24T05:36:18;95040.84;;;8.91;100.00
7662;BME280;30314;48.184;11.510;2023-04-24T05:38:45;95047.69;;;8.92;100.00
7662;BME280;30314;48.184;11.510;2023-04-24T05:41:11;95044.28;;;8.92;100.00
7662;BME280;30314;48.184;11.510;2023-04-24T05:43:38;95040.19;;;8.99;100.00
7662;BME280;30314;48.184;11.510;2023-04-24T05:46:04;95030.03;;;8.93;100.00
7662;BME280;30314;48.184;11.510;2023-04-24T05:48:31;95036.50;;;8.86;100.00
7662;BME280;30314;48.184;11.510;2023-04-24T05:51:00;95041.94;;;8.90;100.00
7662;BME280;30314;48.184;11.510;2023-04-24T05:53:27;95052.06;;;8.97;100.00
7662;BME280;30314;48.184;11.510;2023-04-24T05:55:54;95043.59;;;9.00;100.00
7662;BME280;30314;48.184;11.510;2023-04-24T05:58:20;95056.84;;;8.95;100.00
7662;BME280;30314;48.184;11.510;2023-04-24T06:00:48;95051.97;;;8.88;100.00
7662;BME280;30314;48.184;11.510;2023-04-24T06:03:16;95055.69;;;9.01;100.00
7662;BME280;30314;48.184;11.510;2023-04-24T06:05:43;95054.31;;;9.03;100.00
7662;BME280;30314;48.184;11.510;2023-04-24T06:08:10;95050.97;;;9.12;100.00
7662;BME280;30314;48.184;11.510;2023-04-24T06:10:38;95052.13;;;9.20;100.00
7662;BME280;30314;48.184;11.510;2023-04-24T06:13:07;95059.66;;;9.26;100.00
7662;BME280;30314;48.184;11.510;2023-04-24T06:15:37;95063.94;;;9.36;100.00
7662;BME280;30314;48.184;11.510;2023-04-24T06:18:06;95053.09;;;9.38;100.00
7662;BME280;30314;48.184;11.510;2023-04-24T06:20:34;95057.09;;;9.35;100.00
7662;BME280;30314;48.184;11.510;2023-04-24T06:23:01;95055.13;;;9.41;100.00
7662;BME280;30314;48.184;11.510;2023-04-24T06:25:28;95061.75;;;9.52;100.00
7662;BME280;30314;48.184;11.510;2023-04-24T06:27:55;95065.47;;;9.51;100.00
7662;BME280;30314;48.184;11.510;2023-04-24T06:30:22;95062.34;;;9.49;100.00
7662;BME280;30314;48.184;11.510;2023-04-24T06:32:49;95071.44;;;9.43;100.00
7662;BME280;30314;48.184;11.510;2023-04-24T06:35:15;95076.19;;;9.55;100.00
7662;BME280;30314;48.184;11.510;2023-04-24T06:37:42;95070.63;;;9.56;100.00
7662;BME280;30314;48.184;11.510;2023-04-24T06:40:09;95065.66;;;9.55;100.00
7662;BME280;30314;48.184;11.510;2023-04-24T06:42:36;95072.00;;;9.54;100.00
7662;BME280;30314;48.184;11.510;2023-04-24T06:45:07;95071.00;;;9.64;100.00
7662;BME280;30314;48.184;11.510;2023-04-24T06:47:33;95078.28;;;9.67;100.00
7662;BME280;30314;48.184;11.510;2023-04-24T06:50:01;95085.38;;;9.80;100.00
7662;BME280;30314;48.184;11.510;2023-04-24T06:52:27;95078.91;;;9.86;100.00
7662;BME280;30314;48.184;11.510;2023-04-24T06:55:00;95070.34;;;9.81;100.00
7662;BME280;30314;48.184;11.510;2023-04-24T06:57:27;95091.84;;;9.97;100.00
7662;BME280;30314;48.184;11.510;2023-04-24T06:59:54;95081.81;;;9.99;100.00
7662;BME280;30314;48.184;11.510;2023-04-24T07:02:20;95073.81;;;9.90;100.00
7662;BME280;30314;48.184;11.510;2023-04-24T07:04:47;95073.03;;;9.90;100.00
7662;BME280;30314;48.184;11.510;2023-04-24T07:07:16;95084.66;;;10.11;100.00
7662;BME280;30314;48.184;11.510;2023-04-24T07:09:43;95076.47;;;10.22;100.00
7662;BME280;30314;48.184;11.510;2023-04-24T07:12:11;95082.88;;;10.29;100.00
7662;BME280;30314;48.184;11.510;2023-04-24T07:14:38;95082.00;;;10.34;100.00
7662;BME280;30314;48.184;11.510;2023-04-24T07:17:04;95091.16;;;10.37;100.00
7662;BME280;30314;48.184;11.510;2023-04-24T07:19:35;95087.00;;;10.45;100.00
7662;BME280;30314;48.184;11.510;2023-04-24T07:22:01;95086.41;;;10.48;100.00
7662;BME280;30314;48.184;11.510;2023-04-24T07:24:30;95096.63;;;10.40;100.00
7662;BME280;30314;48.184;11.510;2023-04-24T07:26:58;95106.06;;;10.33;100.00
7662;BME280;30314;48.184;11.510;2023-04-24T07:29:25;95099.63;;;10.25;100.00
7662;BME280;30314;48.184;11.510;2023-04-24T07:31:51;95104.00;;;10.29;100.00
7662;BME280;30314;48.184;11.510;2023-04-24T07:34:18;95103.91;;;10.12;100.00
7662;BME280;30314;48.184;11.510;2023-04-24T07:36:45;95099.00;;;10.19;100.00
7662;BME280;30314;48.184;11.510;2023-04-24T07:39:12;95112.25;;;10.28;100.00
7662;BME280;30314;48.184;11.510;2023-04-24T07:41:38;95113.38;;;10.13;100.00
7662;BME280;30314;48.184;11.510;2023-04-24T07:44:05;95112.72;;;10.07;100.00
7662;BME280;30314;48.184;11.510;2023-04-24T07:46:32;95108.53;;;10.06;100.00
7662;BME280;30314;48.184;11.510;2023-04-24T07:48:59;95120.63;;;10.07;100.00
7662;BME280;30314;48.184;11.510;2023-04-24T07:51:39;95115.97;;;10.04;100.00
7662;BME280;30314;48.184;11.510;2023-04-24T07:54:06;95114.28;;;10.08;100.00
7662;BME280;30314;48.184;11.510;2023-04-24T07:56:33;95112.94;;;10.20;100.00
7662;BME280;30314;48.184;11.510;2023-04-24T07:59:00;95123.88;;;10.27;100.00
7662;BME280;30314;48.184;11.510;2023-04-24T08:01:27;95123.56;;;10.28;100.00
7662;BME280;30314;48.184;11.510;2023-04-24T08:03:54;95132.03;;;10.39;100.00
7662;BME280;30314;48.184;11.510;2023-04-24T08:06:21;95123.03;;;10.40;100.00
7662;BME280;30314;48.184;11.510;2023-04-24T08:08:48;95125.88;;;10.53;100.00
7662;BME280;30314;48.184;11.510;2023-04-24T08:11:14;95097.59;;;10.22;100.00
7662;BME280;30314;48.184;11.510;2023-04-24T08:13:41;95125.00;;;10.35;100.00
7662;BME280;30314;48.184;11.510;2023-04-24T08:16:07;95122.66;;;10.33;100.00
7662;BME280;30314;48.184;11.510;2023-04-24T08:18:34;95133.78;;;10.21;100.00
7662;BME280;30314;48.184;11.510;2023-04-24T08:21:02;95137.41;;;10.11;100.00
7662;BME280;30314;48.184;11.510;2023-04-24T08:23:29;95138.03;;;10.08;100.00
7662;BME280;30314;48.184;11.510;2023-04-24T08:25:56;95141.25;;;10.05;100.00
7662;BME280;30314;48.184;11.510;2023-04-24T08:28:23;95141.38;;;10.00;100.00
7662;BME280;30314;48.184;11.510;2023-04-24T08:30:50;95144.91;;;9.95;100.00
7662;BME280;30314;48.184;11.510;2023-04-24T08:33:22;95162.13;;;9.93;100.00
7662;BME280;30314;48.184;11.510;2023-04-24T08:35:50;95170.78;;;9.70;100.00
7662;BME280;30314;48.184;11.510;2023-04-24T08:38:17;95170.63;;;9.53;100.00
7662;BME280;30314;48.184;11.510;2023-04-24T08:40:43;95169.81;;;9.52;100.00
7662;BME280;30314;48.184;11.510;2023-04-24T08:43:12;95174.69;;;9.45;100.00
7662;BME280;30314;48.184;11.510;2023-04-24T08:45:40;95182.03;;;9.48;100.00
7662;BME280;30314;48.184;11.510;2023-04-24T08:48:07;95167.31;;;9.47;100.00
7662;BME280;30314;48.184;11.510;2023-04-24T08:50:52;95179.38;;;9.62;100.00
7662;BME280;30314;48.184;11.510;2023-04-24T08:53:18;95186.09;;;9.68;100.00
7662;BME280;30314;48.184;11.510;2023-04-24T08:55:47;95185.31;;;9.82;100.00
7662;BME280;30314;48.184;11.510;2023-04-24T08:58:16;95177.59;;;9.71;100.00
7662;BME280;30314;48.184;11.510;2023-04-24T09:00:43;95195.25;;;9.71;100.00
7662;BME280;30314;48.184;11.510;2023-04-24T09:03:14;95185.44;;;9.63;100.00
7662;BME280;30314;48.184;11.510;2023-04-24T09:05:47;95207.38;;;9.72;100.00
7662;BME280;30314;48.184;11.510;2023-04-24T09:08:14;95197.44;;;9.55;100.00
7662;BME280;30314;48.184;11.510;2023-04-24T09:10:42;95202.63;;;9.46;100.00
7662;BME280;30314;48.184;11.510;2023-04-24T09:13:09;95184.09;;;9.23;100.00
7662;BME280;30314;48.184;11.510;2023-04-24T09:15:37;95196.00;;;9.35;100.00
7662;BME280;30314;48.184;11.510;2023-04-24T09:18:04;95189.53;;;9.55;100.00
7662;BME280;30314;48.184;11.510;2023-04-24T09:20:32;95198.41;;;9.73;100.00
7662;BME280;30314;48.184;11.510;2023-04-24T09:22:58;95198.09;;;9.75;100.00
7662;BME280;30314;48.184;11.510;2023-04-24T09:25:34;95203.63;;;9.87;100.00
7662;BME280;30314;48.184;11.510;2023-04-24T09:28:03;95164.38;;;9.85;100.00
7662;BME280;30314;48.184;11.510;2023-04-24T09:30:30;95185.16;;;10.01;100.00
7662;BME280;30314;48.184;11.510;2023-04-24T09:33:10;95189.53;;;10.06;100.00
7662;BME280;30314;48.184;11.510;2023-04-24T09:35:48;95184.06;;;10.02;100.00
7662;BME280;30314;48.184;11.510;2023-04-24T09:38:15;95194.16;;;10.23;100.00
7662;BME280;30314;48.184;11.510;2023-04-24T09:40:42;95198.31;;;10.38;100.00
7662;BME280;30314;48.184;11.510;2023-04-24T09:43:10;95195.94;;;10.36;100.00
7662;BME280;30314;48.184;11.510;2023-04-24T09:45:39;95197.28;;;10.48;100.00
7662;BME280;30314;48.184;11.510;2023-04-24T09:48:09;95192.38;;;10.32;100.00
7662;BME280;30314;48.184;11.510;2023-04-24T09:50:36;95189.59;;;10.37;100.00
7662;BME280;30314;48.184;11.510;2023-04-24T09:53:05;95193.13;;;10.55;100.00
7662;BME280;30314;48.184;11.510;2023-04-24T09:55:32;95193.59;;;10.57;100.00
7662;BME280;30314;48.184;11.510;2023-04-24T09:58:00;95189.72;;;10.55;100.00
7662;BME280;30314;48.184;11.510;2023-04-24T10:00:29;95186.94;;;10.60;100.00
7662;BME280;30314;48.184;11.510;2023-04-24T10:03:00;95185.44;;;10.68;100.00
7662;BME280;30314;48.184;11.510;2023-04-24T10:05:31;95183.81;;;10.81;100.00
7662;BME280;30314;48.184;11.510;2023-04-24T10:08:09;95184.03;;;10.93;100.00
7662;BME280;30314;48.184;11.510;2023-04-24T10:10:42;95195.41;;;11.03;100.00
7662;BME280;30314;48.184;11.510;2023-04-24T10:13:10;95189.78;;;10.95;100.00
7662;BME280;30314;48.184;11.510;2023-04-24T10:15:38;95185.44;;;10.99;100.00
7662;BME280;30314;48.184;11.510;2023-04-24T10:18:05;95190.66;;;11.13;100.00
7662;BME280;30314;48.184;11.510;2023-04-24T10:20:33;95179.97;;;11.27;100.00
7662;BME280;30314;48.184;11.510;2023-04-24T10:23:01;95188.25;;;11.35;100.00
7662;BME280;30314;48.184;11.510;2023-04-24T10:25:33;95182.00;;;11.31;100.00
7662;BME280;30314;48.184;11.510;2023-04-24T10:28:01;95179.09;;;11.41;100.00
7662;BME280;30314;48.184;11.510;2023-04-24T10:30:31;95191.22;;;11.51;100.00
7662;BME280;30314;48.184;11.510;2023-04-24T10:33:04;95176.88;;;11.34;100.00
7662;BME280;30314;48.184;11.510;2023-04-24T10:35:33;95175.22;;;11.38;100.00
7662;BME280;30314;48.184;11.510;2023-04-24T10:38:07;95171.50;;;11.48;100.00
7662;BME280;30314;48.184;11.510;2023-04-24T10:40:35;95174.41;;;11.38;100.00
7662;BME280;30314;48.184;11.510;2023-04-24T10:43:06;95180.16;;;11.40;100.00
7662;BME280;30314;48.184;11.510;2023-04-24T10:45:38;95200.00;;;11.20;100.00
7662;BME280;30314;48.184;11.510;2023-04-24T10:48:09;95236.63;;;10.81;100.00
7662;BME280;30314;48.184;11.510;2023-04-24T10:50:47;95246.50;;;10.07;100.00
7662;BME280;30314;48.184;11.510;2023-04-24T10:53:18;95253.19;;;9.48;100.00
7662;BME280;30314;48.184;11.510;2023-04-24T10:56:05;95220.94;;;9.09;100.00
7662;BME280;30314;48.184;11.510;2023-04-24T10:59:07;95232.25;;;9.10;100.00
7662;BME280;30314;48.184;11.510;2023-04-24T11:01:33;95220.94;;;9.09;100.00
7662;BME280;30314;48.184;11.510;2023-04-24T11:04:02;95223.34;;;9.06;100.00
7662;BME280;30314;48.184;11.510;2023-04-24T11:06:34;95231.41;;;9.28;100.00
7662;BME280;30314;48.184;11.510;2023-04-24T11:09:07;95211.81;;;9.35;100.00
7662;BME280;30314;48.184;11.510;2023-04-24T11:11:36;95216.31;;;9.48;100.00
7662;BME280;30314;48.184;11.510;2023-04-24T11:14:05;95217.22;;;9.80;100.00
7662;BME280;30314;48.184;11.510;2023-04-24T11:21:31;95215.41;;;10.40;100.00
7662;BME280;30314;48.184;11.510;2023-04-24T11:23:58;95202.22;;;10.40;100.00
7662;BME280;30314;48.184;11.510;2023-04-24T11:26:25;95212.47;;;10.65;100.00
7662;BME280;30314;48.184;11.510;2023-04-24T11:29:07;95219.47;;;10.69;100.00
7662;BME280;30314;48.184;11.510;2023-04-24T11:31:39;95230.88;;;10.79;100.00
7662;BME280;30314;48.184;11.510;2023-04-24T11:34:12;95207.34;;;10.68;100.00
7662;BME280;30314;48.184;11.510;2023-04-24T11:36:42;95228.72;;;10.81;100.00
7662;BME280;30314;48.184;11.510;2023-04-24T11:39:09;95223.06;;;10.74;100.00
7662;BME280;30314;48.184;11.510;2023-04-24T11:41:37;95228.16;;;10.70;100.00
7662;BME280;30314;48.184;11.510;2023-04-24T11:44:09;95223.03;;;10.96;100.00
7662;BME280;30314;48.184;11.510;2023-04-24T11:46:35;95207.84;;;10.70;100.00
7662;BME280;30314;48.184;11.510;2023-04-24T11:49:04;95216.16;;;11.18;100.00
7662;BME280;30314;48.184;11.510;2023-04-24T11:51:32;95213.91;;;11.43;100.00
7662;BME280;30314;48.184;11.510;2023-04-24T11:54:13;95207.41;;;11.49;100.00
7662;BME280;30314;48.184;11.510;2023-04-24T11:56:44;95209.81;;;11.77;100.00
7662;BME280;30314;48.184;11.510;2023-04-24T11:59:12;95212.13;;;11.70;100.00
7662;BME280;30314;48.184;11.510;2023-04-24T12:01:45;95200.50;;;11.80;100.00
7662;BME280;30314;48.184;11.510;2023-04-24T12:04:12;95207.19;;;11.95;100.00
7662;BME280;30314;48.184;11.510;2023-04-24T12:06:40;95196.13;;;11.84;100.00
7662;BME280;30314;48.184;11.510;2023-04-24T12:09:24;95205.31;;;11.87;100.00
7662;BME280;30314;48.184;11.510;2023-04-24T12:11:55;95205.47;;;11.90;100.00
7662;BME280;30314;48.184;11.510;2023-04-24T12:14:23;95200.16;;;11.90;100.00
7662;BME280;30314;48.184;11.510;2023-04-24T12:16:50;95204.88;;;12.20;100.00
7662;BME280;30314;48.184;11.510;2023-04-24T12:19:20;95187.75;;;12.35;100.00
7662;BME280;30314;48.184;11.510;2023-04-24T12:21:59;95183.38;;;12.30;100.00
7662;BME280;30314;48.184;11.510;2023-04-24T12:24:26;95191.28;;;12.48;100.00
7662;BME280;30314;48.184;11.510;2023-04-24T12:26:52;95183.06;;;12.40;100.00
7662;BME280;30314;48.184;11.510;2023-04-24T12:29:24;95198.50;;;12.38;93.60
7662;BME280;30314;48.184;11.510;2023-04-24T12:31:51;95177.59;;;12.37;91.06
7662;BME280;30314;48.184;11.510;2023-04-24T12:34:22;95197.53;;;12.34;85.12
7662;BME280;30314;48.184;11.510;2023-04-24T12:36:49;95189.59;;;12.52;87.30
7662;BME280;30314;48.184;11.510;2023-04-24T12:39:17;95179.28;;;12.59;100.00
7662;BME280;30314;48.184;11.510;2023-04-24T12:41:55;95174.75;;;12.68;91.85
7662;BME280;30314;48.184;11.510;2023-04-24T12:44:33;95187.09;;;12.73;79.26
7662;BME280;30314;48.184;11.510;2023-04-24T12:47:01;95189.41;;;12.57;81.95
7662;BME280;30314;48.184;11.510;2023-04-24T12:49:30;95192.56;;;12.42;75.78
7662;BME280;30314;48.184;11.510;2023-04-24T12:51:56;95181.03;;;12.37;90.51
7662;BME280;30314;48.184;11.510;2023-04-24T12:54:23;95194.13;;;12.34;76.68
7662;BME280;30314;48.184;11.510;2023-04-24T12:56:49;95196.16;;;12.19;76.73
7662;BME280;30314;48.184;11.510;2023-04-24T12:59:16;95192.88;;;12.22;75.32
7662;BME280;30314;48.184;11.510;2023-04-24T13:01:42;95191.78;;;11.88;83.77
7662;BME280;30314;48.184;11.510;2023-04-24T13:04:09;95210.28;;;11.79;82.80
7662;BME280;30314;48.184;11.510;2023-04-24T13:06:36;95222.03;;;11.55;84.68
7662;BME280;30314;48.184;11.510;2023-04-24T13:09:03;95232.59;;;11.47;96.04
7662;BME280;30314;48.184;11.510;2023-04-24T13:11:30;95233.47;;;11.24;97.98